Time,TemperatureF,DewpointF,PressureIn,WindDirection,WindDirectionDegrees,WindSpeedMPH,WindSpeedGustMPH,Humidity,HourlyPrecipIn,Conditions,Clouds,dailyrainin,SoftwareType,DateUTC
2013-08-27 00:06:00,73.4,60.0,29.79,West,277,1.0,2.0,63,0.00,,,0.00,weatherlink.com 1.10,2013-08-27 07:06:00,
2013-08-27 00:21:00,73.7,60.0,29.79,West,267,2.0,2.0,63,0.00,,,0.00,weatherlink.com 1.10,2013-08-27 07:21:00,
2013-08-27 00:36:00,73.6,60.0,29.79,West,269,0.0,1.0,62,0.00,,,0.00,weatherlink.com 1.10,2013-08-27 07:36:00,
2013-08-27 00:51:00,73.3,60.0,29.79,West,269,0.0,0.0,63,0.00,,,0.00,weatherlink.com 1.10,2013-08-27 07:51:00,
2013-08-27 01:06:00,73.1,60.0,29.79,West,268,0.0,0.0,63,0.00,,,0.00,weatherlink.com 1.10,2013-08-27 08:06:00,
2013-08-27 01:21:00,72.9,59.0,29.78,West,267,0.0,0.0,63,0.00,,,0.00,weatherlink.com 1.10,2013-08-27 08:21:00,
2013-08-27 01:36:00,72.8,60.0,29.78,West,268,0.0,1.0,64,0.00,,,0.00,weatherlink.com 1.10,2013-08-27 08:36:00,
2013-08-27 01:51:00,72.6,60.0,29.78,West,269,1.0,1.0,65,0.00,,,0.00,weatherlink.com 1.10,2013-08-27 08:51:00,
2013-08-27 02:06:00,72.3,61.0,29.77,NW,319,0.0,2.0,67,0.00,,,0.00,weatherlink.com 1.10,2013-08-27 09:06:00,
2013-08-27 02:21:00,71.3,61.0,29.77,South,191,0.0,1.0,70,0.00,,,0.00,weatherlink.com 1.10,2013-08-27 09:21:00,
2013-08-27 02:36:00,70.5,61.0,29.76,SSW,206,0.0,1.0,71,0.00,,,0.00,weatherlink.com 1.10,2013-08-27 09:36:00,
2013-08-27 02:51:00,70.2,61.0,29.77,SSW,206,0.0,0.0,72,0.00,,,0.00,weatherlink.com 1.10,2013-08-27 09:51:00,
2013-08-27 03:06:00,70.1,61.0,29.77,SSW,206,0.0,1.0,73,0.00,,,0.00,weatherlink.com 1.10,2013-08-27 10:06:00,
2013-08-27 03:21:00,70.0,61.0,29.76,SSW,206,0.0,1.0,74,0.00,,,0.00,weatherlink.com 1.10,2013-08-27 10:21:00,
2013-08-27 03:36:00,70.0,61.0,29.76,SSW,206,0.0,0.0,73,0.00,,,0.00,weatherlink.com 1.10,2013-08-27 10:36:00,
2013-08-27 03:51:00,70.1,61.0,29.76,SSW,206,0.0,1.0,74,0.00,,,0.00,weatherlink.com 1.10,2013-08-27 10:51:00,
2013-08-27 04:06:00,70.0,61.0,29.76,SSW,206,0.0,1.0,74,0.00,,,0.00,weatherlink.com 1.10,2013-08-27 11:06:00,
2013-08-27 04:21:00,69.8,62.0,29.75,SSW,207,0.0,0.0,75,0.00,,,0.00,weatherlink.com 1.10,2013-08-27 11:21:00,
2013-08-27 04:36:00,69.8,62.0,29.75,East,97,0.0,2.0,75,0.00,,,0.00,weatherlink.com 1.10,2013-08-27 11:36:00,
2013-08-27 04:51:00,69.4,62.0,29.75,ESE,120,0.0,2.0,76,0.00,,,0.00,weatherlink.com 1.10,2013-08-27 11:51:00,
2013-08-27 05:06:00,69.0,62.0,29.76,SSE,160,3.0,3.0,78,0.00,,,0.00,weatherlink.com 1.10,2013-08-27 12:06:00,
2013-08-27 05:21:00,68.9,62.0,29.76,SE,146,3.0,5.0,79,0.00,,,0.00,weatherlink.com 1.10,2013-08-27 12:21:00,
2013-08-27 05:36:00,68.9,62.0,29.76,SSE,158,0.0,3.0,79,0.00,,,0.00,weatherlink.com 1.10,2013-08-27 12:36:00,
2013-08-27 05:51:00,68.9,63.0,29.77,SE,137,3.0,5.0,80,0.00,,,0.00,weatherlink.com 1.10,2013-08-27 12:51:00,
2013-08-27 06:06:00,68.6,62.0,29.77,SE,141,3.0,5.0,80,0.00,,,0.00,weatherlink.com 1.10,2013-08-27 13:06:00,
2013-08-27 06:21:00,68.4,62.0,29.77,SE,135,3.0,4.0,81,0.00,,,0.00,weatherlink.com 1.10,2013-08-27 13:21:00,
2013-08-27 06:36:00,68.4,62.0,29.77,South,181,2.0,3.0,81,0.00,,,0.00,weatherlink.com 1.10,2013-08-27 13:36:00,
2013-08-27 06:51:00,69.0,63.0,29.78,SE,142,0.0,4.0,81,0.00,,,0.00,weatherlink.com 1.10,2013-08-27 13:51:00,
2013-08-27 07:06:00,69.9,63.0,29.78,SE,145,1.0,3.0,79,0.00,,,0.00,weatherlink.com 1.10,2013-08-27 14:06:00,
2013-08-27 07:22:00,69.7,63.0,29.79,SE,128,1.0,6.0,79,0.00,,,0.00,weatherlink.com 1.10,2013-08-27 14:22:00,
2013-08-27 07:37:00,69.9,63.0,29.79,SE,145,1.0,4.0,78,0.00,,,0.00,weatherlink.com 1.10,2013-08-27 14:37:00,
2013-08-27 07:52:00,70.5,63.0,29.80,SE,124,3.0,4.0,77,0.00,,,0.00,weatherlink.com 1.10,2013-08-27 14:52:00,
2013-08-27 08:07:00,72.2,64.0,29.80,SE,143,2.0,6.0,74,0.00,,,0.00,weatherlink.com 1.10,2013-08-27 15:07:00,
2013-08-27 08:22:00,72.6,63.0,29.80,East,82,2.0,5.0,73,0.00,,,0.00,weatherlink.com 1.10,2013-08-27 15:22:00,
2013-08-27 08:37:00,73.1,64.0,29.80,ESE,104,3.0,5.0,72,0.00,,,0.00,weatherlink.com 1.10,2013-08-27 15:37:00,
2013-08-27 08:52:00,73.2,64.0,29.80,East,94,4.0,4.0,72,0.00,,,0.00,weatherlink.com 1.10,2013-08-27 15:52:00,
2013-08-27 09:07:00,75.4,64.0,29.80,SE,142,2.0,5.0,67,0.00,,,0.00,weatherlink.com 1.10,2013-08-27 16:07:00,
2013-08-27 09:22:00,77.0,64.0,29.80,South,179,1.0,4.0,65,0.00,,,0.00,weatherlink.com 1.10,2013-08-27 16:22:00,
2013-08-27 09:37:00,77.6,63.0,29.81,SSW,207,3.0,6.0,62,0.00,,,0.00,weatherlink.com 1.10,2013-08-27 16:37:00,
2013-08-27 09:52:00,78.3,64.0,29.80,SW,214,3.0,5.0,61,0.00,,,0.00,weatherlink.com 1.10,2013-08-27 16:52:00,
2013-08-27 10:07:00,78.3,63.0,29.81,SSE,155,2.0,8.0,59,0.00,,,0.00,weatherlink.com 1.10,2013-08-27 17:07:00,
2013-08-27 10:22:00,78.3,63.0,29.81,SW,236,3.0,7.0,60,0.00,,,0.00,weatherlink.com 1.10,2013-08-27 17:22:00,
2013-08-27 10:37:00,78.5,63.0,29.81,ESE,114,2.0,6.0,59,0.00,,,0.00,weatherlink.com 1.10,2013-08-27 17:37:00,
2013-08-27 10:52:00,78.8,63.0,29.80,SE,136,3.0,6.0,58,0.00,,,0.00,weatherlink.com 1.10,2013-08-27 17:52:00,
2013-08-27 11:07:00,79.8,62.0,29.81,South,189,4.0,6.0,55,0.00,,,0.00,weatherlink.com 1.10,2013-08-27 18:07:00,
2013-08-27 11:22:00,80.9,62.0,29.80,SE,138,5.0,9.0,53,0.00,,,0.00,weatherlink.com 1.10,2013-08-27 18:22:00,
2013-08-27 11:37:00,78.8,63.0,29.80,SSE,158,3.0,8.0,58,0.00,,,0.00,weatherlink.com 1.10,2013-08-27 18:37:00,
2013-08-27 11:52:00,78.5,63.0,29.80,SW,230,3.0,6.0,60,0.00,,,0.00,weatherlink.com 1.10,2013-08-27 18:52:00,
2013-08-27 12:07:00,78.4,62.0,29.79,SSE,160,7.0,7.0,58,0.00,,,0.00,weatherlink.com 1.10,2013-08-27 19:07:00,
2013-08-27 12:22:00,79.1,62.0,29.79,SW,221,5.0,8.0,57,0.00,,,0.00,weatherlink.com 1.10,2013-08-27 19:22:00,
2013-08-27 12:37:00,78.7,63.0,29.79,SSW,209,1.0,7.0,58,0.00,,,0.00,weatherlink.com 1.10,2013-08-27 19:37:00,
2013-08-27 12:52:00,78.9,64.0,29.79,SSE,150,2.0,7.0,60,0.00,,,0.00,weatherlink.com 1.10,2013-08-27 19:52:00,
2013-08-27 13:07:00,78.7,63.0,29.79,WSW,237,8.0,8.0,58,0.00,,,0.00,weatherlink.com 1.10,2013-08-27 20:07:00,
2013-08-27 13:22:00,78.2,63.0,29.78,SSW,213,2.0,8.0,59,0.00,,,0.00,weatherlink.com 1.10,2013-08-27 20:22:00,
2013-08-27 13:37:00,79.4,63.0,29.77,SSW,210,2.0,6.0,58,0.00,,,0.00,weatherlink.com 1.10,2013-08-27 20:37:00,
2013-08-27 13:52:00,80.8,63.0,29.77,SSE,166,2.0,6.0,55,0.00,,,0.00,weatherlink.com 1.10,2013-08-27 20:52:00,
2013-08-27 14:07:00,83.3,63.0,29.76,SSE,166,1.0,5.0,51,0.00,,,0.00,weatherlink.com 1.10,2013-08-27 21:07:00,
2013-08-27 14:52:00,88.0,63.0,29.74,SSE,156,3.0,5.0,44,0.00,,,0.00,weatherlink.com 1.10,2013-08-27 21:52:00,
2013-08-27 15:07:00,89.4,57.0,29.74,WNW,295,0.0,6.0,33,0.00,,,0.00,weatherlink.com 1.10,2013-08-27 22:07:00,
2013-08-27 15:22:00,90.8,56.0,29.74,West,274,5.0,8.0,31,0.00,,,0.00,weatherlink.com 1.10,2013-08-27 22:22:00,
2013-08-27 15:37:00,89.9,54.0,29.74,WNW,302,4.0,7.0,29,0.00,,,0.00,weatherlink.com 1.10,2013-08-27 22:37:00,
2013-08-27 15:52:00,89.1,55.0,29.73,WNW,285,6.0,9.0,31,0.00,,,0.00,weatherlink.com 1.10,2013-08-27 22:52:00,
2013-08-27 16:07:00,86.8,56.0,29.73,WSW,252,4.0,9.0,35,0.00,,,0.00,weatherlink.com 1.10,2013-08-27 23:07:00,
2013-08-27 16:22:00,86.4,57.0,29.73,NW,311,3.0,10.0,37,0.00,,,0.00,weatherlink.com 1.10,2013-08-27 23:22:00,
2013-08-27 16:37:00,87.0,56.0,29.73,WSW,257,2.0,9.0,35,0.00,,,0.00,weatherlink.com 1.10,2013-08-27 23:37:00,
2013-08-27 16:52:00,85.8,56.0,29.73,WSW,243,7.0,10.0,36,0.00,,,0.00,weatherlink.com 1.10,2013-08-27 23:52:00,
2013-08-27 17:07:00,85.5,56.0,29.73,WSW,243,5.0,8.0,37,0.00,,,0.00,weatherlink.com 1.10,2013-08-28 00:07:00,
2013-08-27 17:22:00,84.7,56.0,29.73,WNW,287,8.0,9.0,38,0.00,,,0.00,weatherlink.com 1.10,2013-08-28 00:22:00,
2013-08-27 17:37:00,83.3,55.0,29.73,West,259,4.0,10.0,38,0.00,,,0.00,weatherlink.com 1.10,2013-08-28 00:37:00,
2013-08-27 17:52:00,82.7,57.0,29.73,West,274,6.0,7.0,41,0.00,,,0.00,weatherlink.com 1.10,2013-08-28 00:52:00,
2013-08-27 18:08:00,80.7,56.0,29.73,WNW,297,4.0,8.0,43,0.00,,,0.00,weatherlink.com 1.10,2013-08-28 01:08:00,
2013-08-27 18:23:00,79.9,57.0,29.73,West,266,4.0,7.0,46,0.00,,,0.00,weatherlink.com 1.10,2013-08-28 01:23:00,
2013-08-27 18:38:00,79.0,58.0,29.73,West,270,3.0,6.0,48,0.00,,,0.00,weatherlink.com 1.10,2013-08-28 01:38:00,
2013-08-27 18:53:00,78.5,57.0,29.72,WNW,302,3.0,7.0,48,0.00,,,0.00,weatherlink.com 1.10,2013-08-28 01:53:00,
2013-08-27 19:08:00,77.1,58.0,29.73,West,274,2.0,6.0,51,0.00,,,0.00,weatherlink.com 1.10,2013-08-28 02:08:00,
2013-08-27 19:23:00,76.4,57.0,29.73,West,268,1.0,6.0,52,0.00,,,0.00,weatherlink.com 1.10,2013-08-28 02:23:00,
2013-08-27 19:38:00,75.3,57.0,29.73,NW,325,4.0,5.0,54,0.00,,,0.00,weatherlink.com 1.10,2013-08-28 02:38:00,
2013-08-27 19:53:00,74.4,57.0,29.74,West,279,1.0,6.0,55,0.00,,,0.00,weatherlink.com 1.10,2013-08-28 02:53:00,
2013-08-27 20:08:00,73.8,57.0,29.74,NW,311,2.0,4.0,56,0.00,,,0.00,weatherlink.com 1.10,2013-08-28 03:08:00,
2013-08-27 20:23:00,73.9,57.0,29.75,WNW,293,0.0,3.0,56,0.00,,,0.00,weatherlink.com 1.10,2013-08-28 03:23:00,
2013-08-27 20:38:00,73.7,57.0,29.75,WNW,288,0.0,3.0,56,0.00,,,0.00,weatherlink.com 1.10,2013-08-28 03:38:00,
2013-08-27 20:53:00,73.5,57.0,29.76,WNW,290,1.0,1.0,56,0.00,,,0.00,weatherlink.com 1.10,2013-08-28 03:53:00,
2013-08-27 21:08:00,73.3,57.0,29.76,WNW,295,0.0,2.0,57,0.00,,,0.00,weatherlink.com 1.10,2013-08-28 04:08:00,
2013-08-27 21:23:00,73.1,57.0,29.77,WNW,295,0.0,2.0,58,0.00,,,0.00,weatherlink.com 1.10,2013-08-28 04:23:00,
2013-08-27 21:38:00,72.8,57.0,29.77,WNW,283,0.0,2.0,59,0.00,,,0.00,weatherlink.com 1.10,2013-08-28 04:38:00,
2013-08-27 21:53:00,72.5,58.0,29.78,WNW,283,0.0,1.0,60,0.00,,,0.00,weatherlink.com 1.10,2013-08-28 04:53:00,
2013-08-27 22:08:00,72.4,58.0,29.77,WNW,283,0.0,0.0,60,0.00,,,0.00,weatherlink.com 1.10,2013-08-28 05:08:00,
2013-08-27 22:23:00,72.2,57.0,29.78,WNW,283,0.0,0.0,60,0.00,,,0.00,weatherlink.com 1.10,2013-08-28 05:23:00,
2013-08-27 22:38:00,72.2,58.0,29.78,WNW,283,0.0,1.0,61,0.00,,,0.00,weatherlink.com 1.10,2013-08-28 05:38:00,
2013-08-27 22:53:00,72.0,58.0,29.77,WNW,284,0.0,2.0,62,0.00,,,0.00,weatherlink.com 1.10,2013-08-28 05:53:00,
2013-08-27 23:08:00,71.8,58.0,29.78,WNW,295,0.0,1.0,63,0.00,,,0.00,weatherlink.com 1.10,2013-08-28 06:08:00,
2013-08-27 23:23:00,71.5,59.0,29.77,WNW,282,0.0,1.0,65,0.00,,,0.00,weatherlink.com 1.10,2013-08-28 06:23:00,
2013-08-27 23:38:00,71.3,60.0,29.77,WNW,283,1.0,2.0,67,0.00,,,0.00,weatherlink.com 1.10,2013-08-28 06:38:00,
2013-08-27 23:53:00,71.0,60.0,29.77,WNW,301,0.0,2.0,68,0.00,,,0.00,weatherlink.com 1.10,2013-08-28 06:53:00,